createdAt,value
2019-03-19T00:00:11.167Z,100359.44
2019-03-19T00:02:38.220Z,100362.48
2019-03-19T00:05:05.389Z,100362.92
2019-03-19T00:07:32.451Z,100369.02
2019-03-19T00:09:59.505Z,100372.94
2019-03-19T00:12:26.568Z,100383.78
2019-03-19T00:14:53.634Z,100381.21
2019-03-19T00:17:20.691Z,100390.75
2019-03-19T00:19:47.749Z,100390.34
2019-03-19T00:22:14.813Z,100389.91
2019-03-19T00:24:41.870Z,100407.73
2019-03-19T00:27:08.924Z,100401.21
2019-03-19T00:29:36.004Z,100402.08
2019-03-19T00:32:03.050Z,100407.75
2019-03-19T00:34:30.158Z,100412.09
2019-03-19T00:36:57.215Z,100416.01
2019-03-19T00:39:24.267Z,100416.85
2019-03-19T00:41:52.241Z,100429.91
2019-03-19T00:44:19.498Z,100436.89
2019-03-19T00:46:46.552Z,100439.05
2019-03-19T00:49:13.633Z,100447.73
2019-03-19T00:51:40.683Z,100445.14
2019-03-19T00:54:07.750Z,100452.52
2019-03-19T00:56:34.806Z,100454.70
2019-03-19T00:59:01.879Z,100459.08
2019-03-19T01:01:28.945Z,100467.31
2019-03-19T01:03:56.038Z,100474.30
2019-03-19T01:06:23.091Z,100476.05
2019-03-19T01:08:50.151Z,100482.12
2019-03-19T01:11:17.203Z,100489.97
2019-03-19T01:13:44.265Z,100482.99
2019-03-19T01:16:11.316Z,100495.61
2019-03-19T01:18:38.390Z,100499.51
2019-03-19T01:21:05.440Z,100501.27
2019-03-19T01:23:32.490Z,100514.32
2019-03-19T01:25:59.554Z,100517.38
2019-03-19T01:28:26.635Z,100515.61
2019-03-19T01:30:53.688Z,100523.89
2019-03-19T01:33:20.754Z,100533.03
2019-03-19T01:35:47.820Z,100534.75
2019-03-19T01:38:14.912Z,100540.41
2019-03-19T01:40:41.958Z,100547.81
2019-03-19T01:43:09.017Z,100550.42
2019-03-19T01:45:36.099Z,100555.20
2019-03-19T01:48:03.568Z,100548.25
2019-03-19T01:50:30.641Z,100562.17
2019-03-19T01:52:57.705Z,100567.41
2019-03-19T01:55:25.703Z,100572.63
2019-03-19T01:57:52.930Z,100574.80
2019-03-19T02:00:19.992Z,100576.98
2019-03-19T02:02:47.048Z,100584.37
2019-03-19T02:05:14.123Z,100586.55
2019-03-19T02:07:41.296Z,100586.56
2019-03-19T02:10:08.872Z,100586.56
2019-03-19T02:12:35.967Z,100590.89
2019-03-19T02:15:03.147Z,100590.47
2019-03-19T02:17:30.212Z,100598.74
2019-03-19T02:19:57.334Z,100598.74
2019-03-19T02:22:24.385Z,100600.49
2019-03-19T02:24:51.477Z,100611.80
2019-03-19T02:27:18.527Z,100606.58
2019-03-19T02:29:45.604Z,100609.18
2019-03-19T02:32:12.721Z,100605.70
2019-03-19T02:34:39.769Z,100622.66
2019-03-19T02:37:06.834Z,100626.59
2019-03-19T02:39:33.896Z,100622.25
2019-03-19T02:42:00.960Z,100637.92
2019-03-19T02:44:28.031Z,100647.49
2019-03-19T02:46:55.090Z,100647.05
2019-03-19T02:49:22.147Z,100650.98
2019-03-19T02:51:49.221Z,100651.84
2019-03-19T02:54:16.296Z,100658.36
2019-03-19T02:56:43.344Z,100659.27
2019-03-19T02:59:10.413Z,100664.47
2019-03-19T03:01:37.479Z,100671.45
2019-03-19T03:04:04.534Z,100672.30
2019-03-19T03:06:31.593Z,100682.30
2019-03-19T03:08:58.654Z,100695.39
2019-03-19T03:11:25.694Z,100700.59
2019-03-19T03:13:52.768Z,100706.27
2019-03-19T03:16:20.006Z,100709.75
2019-03-19T03:18:47.184Z,100719.33
2019-03-19T03:21:14.271Z,100713.67
2019-03-19T03:23:41.353Z,100716.69
2019-03-19T03:26:08.418Z,100727.58
2019-03-19T03:28:35.503Z,100731.91
2019-03-19T03:31:02.553Z,100728.01
2019-03-19T03:33:29.601Z,100739.75
2019-03-19T03:35:56.651Z,100738.00
2019-03-19T03:38:23.725Z,100744.08
2019-03-19T03:40:50.807Z,100747.16
2019-03-19T03:43:17.874Z,100748.47
2019-03-19T03:45:44.947Z,100754.52
2019-03-19T03:48:12.006Z,100758.87
2019-03-19T03:50:39.065Z,100768.89
2019-03-19T03:53:06.131Z,100768.45
2019-03-19T03:55:33.193Z,100776.31
2019-03-19T03:58:00.253Z,100778.91
2019-03-19T04:00:27.300Z,100785.03
2019-03-19T04:02:54.353Z,100780.22
2019-03-19T04:05:21.417Z,100785.02
2019-03-19T04:07:48.505Z,100784.19
2019-03-19T04:10:15.540Z,100790.71
2019-03-19T04:12:42.601Z,100791.17
2019-03-19T04:15:10.239Z,100791.57
2019-03-19T04:17:37.289Z,100798.55
2019-03-19T04:20:04.759Z,100800.72
2019-03-19T04:22:31.823Z,100800.75
2019-03-19T04:24:58.883Z,100801.18
2019-03-19T04:27:25.959Z,100818.16
2019-03-19T04:29:53.025Z,100812.09
2019-03-19T04:32:20.088Z,100822.08
2019-03-19T04:34:47.139Z,100817.75
2019-03-19T04:37:14.216Z,100829.09
2019-03-19T04:39:41.279Z,100830.37
2019-03-19T04:42:08.333Z,100831.68
2019-03-19T04:44:35.402Z,100835.16
2019-03-19T04:47:02.563Z,100839.06
2019-03-19T04:49:29.623Z,100839.09
2019-03-19T04:51:56.688Z,100856.04
2019-03-19T04:54:23.784Z,100849.05
2019-03-19T04:56:50.859Z,100871.25
2019-03-19T04:59:17.926Z,100864.73
2019-03-19T05:01:44.979Z,100874.28
2019-03-19T05:04:12.028Z,100880.81
2019-03-19T05:06:39.110Z,100888.66
2019-03-19T05:09:07.142Z,100892.13
2019-03-19T05:11:34.195Z,100896.94
2019-03-19T05:14:01.249Z,100905.67
2019-03-19T05:16:28.303Z,100904.36
2019-03-19T05:18:55.366Z,100908.28
2019-03-19T05:21:22.433Z,100915.22
2019-03-19T05:23:49.503Z,100920.88
2019-03-19T05:26:16.685Z,100923.02
2019-03-19T05:28:43.747Z,100924.73
2019-03-19T05:31:10.799Z,100925.19
2019-03-19T05:33:37.891Z,100932.55
2019-03-19T05:36:04.989Z,100947.33
2019-03-19T05:38:32.023Z,100942.08
2019-03-19T05:40:59.087Z,100950.81
2019-03-19T05:43:26.149Z,100950.37
2019-03-19T05:45:53.206Z,100958.21
2019-03-19T05:48:20.284Z,100954.28
2019-03-19T05:50:47.345Z,100959.05
2019-03-19T05:53:14.437Z,100981.27
2019-03-19T05:55:41.496Z,100976.92
2019-03-19T05:58:08.593Z,100982.55
2019-03-19T06:00:36.061Z,100983.89
2019-03-19T06:03:03.119Z,100976.47
2019-03-19T06:05:30.205Z,100984.68
2019-03-19T06:07:57.288Z,100987.67
2019-03-19T06:10:26.019Z,100988.98
2019-03-19T06:12:53.381Z,100998.12
2019-03-19T06:15:20.465Z,100999.45
2019-03-19T06:17:47.530Z,101015.08
2019-03-19T06:20:14.608Z,101012.03
2019-03-19T06:22:41.682Z,101016.45
2019-03-19T06:25:08.942Z,101018.56
2019-03-19T06:27:36.020Z,101025.96
2019-03-19T06:30:04.553Z,101031.24
2019-03-19T06:32:31.619Z,101034.63
2019-03-19T06:34:58.716Z,101039.85
2019-03-19T06:37:25.795Z,101057.66
2019-03-19T06:39:52.878Z,101052.84
2019-03-19T06:42:19.987Z,101055.08
2019-03-19T06:44:47.057Z,101054.61
2019-03-19T06:47:14.119Z,101067.66
2019-03-19T06:49:41.193Z,101073.36
2019-03-19T06:52:08.267Z,101064.66
2019-03-19T06:54:35.334Z,101080.31
2019-03-19T06:57:02.429Z,101084.70
2019-03-19T06:59:29.474Z,101090.83
2019-03-19T07:01:56.545Z,101097.82
2019-03-19T07:04:23.609Z,101103.38
2019-03-19T07:06:50.731Z,101103.34
2019-03-19T07:09:17.796Z,101114.32
2019-03-19T07:11:44.880Z,101112.01
2019-03-19T07:14:11.949Z,101118.13
2019-03-19T07:16:39.013Z,101127.27
2019-03-19T07:19:06.075Z,101133.44
2019-03-19T07:21:33.141Z,101129.95
2019-03-19T07:24:00.210Z,101137.78
2019-03-19T07:26:27.275Z,101148.70
2019-03-19T07:28:54.346Z,101154.39
2019-03-19T07:31:30.392Z,101146.55
2019-03-19T07:33:50.403Z,101150.00
2019-03-19T07:36:17.471Z,101156.93
2019-03-19T07:38:45.454Z,101161.31
2019-03-19T07:41:12.554Z,101163.56
2019-03-19T07:43:39.627Z,101158.38
2019-03-19T07:46:06.660Z,101174.08
2019-03-19T07:48:33.884Z,101175.86
2019-03-19T07:51:00.959Z,101173.68
2019-03-19T07:53:28.247Z,101178.97
2019-03-19T07:55:55.321Z,101175.95
2019-03-19T07:58:32.837Z,101172.98
2019-03-19T08:00:51.369Z,101180.31
2019-03-19T08:03:18.444Z,101189.89
2019-03-19T08:05:45.507Z,101194.31
2019-03-19T08:08:12.574Z,101203.92
2019-03-19T08:10:39.647Z,101219.63
2019-03-19T08:13:06.714Z,101213.53
2019-03-19T08:15:33.778Z,101217.92
2019-03-19T08:18:00.847Z,101222.72
2019-03-19T08:20:27.926Z,101233.20
2019-03-19T08:22:54.983Z,101230.66
2019-03-19T08:25:22.064Z,101240.77
2019-03-19T08:27:49.166Z,101238.93
2019-03-19T08:30:16.276Z,101245.46
2019-03-19T08:32:43.352Z,101246.80
2019-03-19T08:35:10.400Z,101252.12
2019-03-19T08:37:37.471Z,101253.09
2019-03-19T08:40:05.333Z,101254.05
2019-03-19T08:42:32.405Z,101259.37
2019-03-19T08:44:59.504Z,101270.78
2019-03-19T08:47:26.558Z,101263.78
2019-03-19T08:49:53.711Z,101266.78
2019-03-19T08:52:20.793Z,101278.55
2019-03-19T08:54:47.862Z,101283.69
2019-03-19T08:57:14.929Z,101282.81
2019-03-19T08:59:42.001Z,101283.99
2019-03-19T09:02:09.149Z,101283.87
2019-03-19T09:04:36.220Z,101288.00
2019-03-19T09:07:03.434Z,101290.27
2019-03-19T09:09:30.502Z,101294.66
2019-03-19T09:11:57.576Z,101299.48
2019-03-19T09:14:24.660Z,101293.29
2019-03-19T09:16:51.738Z,101300.17
2019-03-19T09:19:18.865Z,101310.17
2019-03-19T09:21:45.933Z,101311.37
2019-03-19T09:24:13.014Z,101318.80
2019-03-19T09:26:40.077Z,101317.19
2019-03-19T09:29:16.307Z,101328.47
2019-03-19T09:31:53.200Z,101339.77
2019-03-19T09:34:20.447Z,101338.19
2019-03-19T09:36:56.986Z,101337.41
2019-03-19T09:39:16.503Z,101345.80
2019-03-19T09:41:43.564Z,101349.35
2019-03-19T09:44:10.625Z,101344.95
2019-03-19T09:46:37.740Z,101348.80
2019-03-19T09:49:04.804Z,101358.87
2019-03-19T09:51:31.891Z,101355.41
2019-03-19T09:53:58.976Z,101365.48
2019-03-19T09:56:26.048Z,101364.20
2019-03-19T09:58:53.107Z,101369.48
2019-03-19T10:01:20.171Z,101367.71
2019-03-19T10:03:47.245Z,101372.13
2019-03-19T10:06:14.666Z,101373.46
2019-03-19T10:08:41.920Z,101376.12
2019-03-19T10:11:08.999Z,101387.05
2019-03-19T10:13:36.090Z,101389.70
2019-03-19T10:16:03.247Z,101395.38
2019-03-19T10:18:30.353Z,101380.03
2019-03-19T10:20:57.427Z,101405.38
2019-03-19T10:23:24.524Z,101407.55
2019-03-19T10:25:51.574Z,101405.31
2019-03-19T10:28:18.673Z,101415.42
2019-03-19T10:30:45.758Z,101413.32
2019-03-19T10:33:12.864Z,101416.37
2019-03-19T10:35:39.919Z,101429.06
2019-03-19T10:38:06.984Z,101425.12
2019-03-19T10:40:34.069Z,101429.50
2019-03-19T10:43:01.131Z,101429.96
2019-03-19T10:45:28.224Z,101428.61
2019-03-19T10:47:55.267Z,101431.66
2019-03-19T10:50:22.379Z,101436.47
2019-03-19T10:52:49.479Z,101436.02
2019-03-19T10:55:16.562Z,101441.25
2019-03-19T10:57:43.631Z,101446.93
2019-03-19T11:00:14.064Z,101454.39
2019-03-19T11:02:41.193Z,101457.91
2019-03-19T11:05:09.101Z,101467.99
2019-03-19T11:07:36.159Z,101457.08
2019-03-19T11:10:04.039Z,101458.86
2019-03-19T11:12:31.139Z,101458.84
2019-03-19T11:14:58.289Z,101461.46
2019-03-19T11:17:25.419Z,101460.16
2019-03-19T11:19:52.555Z,101464.98
2019-03-19T11:22:19.628Z,101466.71
2019-03-19T11:24:46.684Z,101475.02
2019-03-19T11:27:13.751Z,101474.59
2019-03-19T11:29:40.827Z,101473.31
2019-03-19T11:32:07.881Z,101478.55
2019-03-19T11:34:34.946Z,101485.12
2019-03-19T11:37:02.021Z,101490.80
2019-03-19T11:39:29.087Z,101493.45
2019-03-19T11:41:56.165Z,101493.90
2019-03-19T11:44:23.229Z,101502.62
2019-03-19T11:46:50.546Z,101494.33
2019-03-19T11:49:17.611Z,101494.75
2019-03-19T11:51:44.669Z,101500.89
2019-03-19T11:54:11.742Z,101499.13
2019-03-19T11:56:38.816Z,101500.02
2019-03-19T11:59:05.875Z,101506.59
2019-03-19T12:01:32.934Z,101507.00
2019-03-19T12:04:00.005Z,101505.72
2019-03-19T12:06:27.074Z,101501.75
2019-03-19T12:08:54.253Z,101504.39
2019-03-19T12:11:21.359Z,101507.00
2019-03-19T12:13:48.427Z,101510.96
2019-03-19T12:16:15.498Z,101522.34
2019-03-19T12:18:42.568Z,101518.40
2019-03-19T12:21:09.683Z,101527.18
2019-03-19T12:23:36.760Z,101523.66
2019-03-19T12:26:03.823Z,101527.17
2019-03-19T12:28:39.231Z,101529.36
2019-03-19T12:30:59.889Z,101538.98
2019-03-19T12:33:26.951Z,101546.41
2019-03-19T12:35:54.022Z,101549.49
2019-03-19T12:38:21.123Z,101549.05
2019-03-19T12:40:48.216Z,101549.03
2019-03-19T12:43:15.291Z,101542.48
2019-03-19T12:45:42.411Z,101545.55
2019-03-19T12:48:09.473Z,101541.63
2019-03-19T12:50:36.538Z,101549.07
2019-03-19T12:53:03.723Z,101545.55
2019-03-19T12:55:30.796Z,101553.02
2019-03-19T12:57:57.860Z,101550.39
2019-03-19T13:00:55.473Z,101542.48
2019-03-19T13:02:53.903Z,101543.37
2019-03-19T13:05:22.508Z,101545.13
2019-03-19T13:07:49.913Z,101549.48
2019-03-19T13:10:17.067Z,101553.41
2019-03-19T13:12:44.146Z,101555.64
2019-03-19T13:15:11.692Z,101558.68
2019-03-19T13:17:38.783Z,101566.16
2019-03-19T13:20:07.216Z,101573.58
2019-03-19T13:22:34.297Z,101583.67
2019-03-19T13:25:01.379Z,101577.11
2019-03-19T13:27:28.416Z,101580.16
2019-03-19T13:29:55.479Z,101584.98
2019-03-19T13:32:22.546Z,101584.55
2019-03-19T13:34:49.664Z,101583.23
2019-03-19T13:37:16.755Z,101582.82
2019-03-19T13:39:43.879Z,101583.66
2019-03-19T13:42:10.946Z,101588.05
2019-03-19T13:44:38.022Z,101590.26
2019-03-19T13:47:05.095Z,101590.69
2019-03-19T13:49:32.170Z,101597.26
2019-03-19T13:51:59.249Z,101596.83
2019-03-19T13:54:26.294Z,101590.23
2019-03-19T13:56:53.361Z,101604.27
2019-03-19T13:59:20.416Z,101600.32
2019-03-19T14:01:47.474Z,101604.27
2019-03-19T14:04:14.543Z,101609.08
2019-03-19T14:06:41.646Z,101607.80
2019-03-19T14:09:09.043Z,101607.79
2019-03-19T14:11:36.110Z,101613.89
2019-03-19T14:14:03.168Z,101623.13
2019-03-19T14:16:30.230Z,101628.38
2019-03-19T14:18:57.328Z,101630.12
2019-03-19T14:21:24.377Z,101636.25
2019-03-19T14:23:51.444Z,101641.97
2019-03-19T14:26:18.529Z,101645.49
2019-03-19T14:28:45.590Z,101651.61
2019-03-19T14:31:12.642Z,101659.94
2019-03-19T14:33:39.727Z,101659.05
2019-03-19T14:36:10.438Z,101658.64
2019-03-19T14:38:46.723Z,101664.75
2019-03-19T14:41:06.721Z,101663.87
2019-03-19T14:43:33.778Z,101672.67
2019-03-19T14:46:00.847Z,101681.86
2019-03-19T14:48:27.945Z,101681.42
2019-03-19T14:50:55.116Z,101689.33
2019-03-19T14:53:22.229Z,101692.81
2019-03-19T14:55:49.312Z,101689.31
2019-03-19T14:58:16.400Z,101691.51
2019-03-19T15:00:43.484Z,101693.27
2019-03-19T15:03:10.575Z,101698.09
2019-03-19T15:05:37.632Z,101703.80
2019-03-19T15:08:04.696Z,101705.55
2019-03-19T15:10:31.788Z,101704.23
2019-03-19T15:12:58.852Z,101707.30
2019-03-19T15:15:25.925Z,101707.30
2019-03-19T15:17:52.991Z,101710.83
2019-03-19T15:20:20.066Z,101711.68
2019-03-19T15:22:47.129Z,101727.48
2019-03-19T15:25:14.283Z,101721.34
2019-03-19T15:27:41.379Z,101725.72
2019-03-19T15:30:08.660Z,101725.28
2019-03-19T15:32:35.762Z,101729.65
2019-03-19T15:35:03.078Z,101731.84
2019-03-19T15:37:30.184Z,101733.62
2019-03-19T15:39:57.245Z,101730.53
2019-03-19T15:42:24.405Z,101731.41
2019-03-19T15:44:51.913Z,101745.47
2019-03-19T15:47:19.083Z,101747.20
2019-03-19T15:49:46.218Z,101744.59
2019-03-19T15:52:13.359Z,101743.70
2019-03-19T15:54:40.429Z,101744.56
2019-03-19T15:57:07.615Z,101751.59
2019-03-19T15:59:34.695Z,101743.70
2019-03-19T16:02:01.779Z,101753.34
2019-03-19T16:04:28.850Z,101748.09
2019-03-19T16:06:55.924Z,101746.77
2019-03-19T16:09:23.005Z,101755.98
2019-03-19T16:11:50.072Z,101758.62
2019-03-19T16:14:17.128Z,101765.17
2019-03-19T16:16:44.199Z,101766.48
2019-03-19T16:19:11.255Z,101767.36
2019-03-19T16:21:38.338Z,101773.52
2019-03-19T16:24:05.406Z,101770.89
2019-03-19T16:26:32.469Z,101773.50
2019-03-19T16:28:59.544Z,101770.00
2019-03-19T16:31:26.598Z,101777.89
2019-03-19T16:33:53.676Z,101778.30
2019-03-19T16:36:20.738Z,101780.92
2019-03-19T16:38:47.814Z,101787.02
2019-03-19T16:41:14.902Z,101783.95
2019-03-19T16:43:41.956Z,101781.77
2019-03-19T16:46:09.062Z,101790.05
2019-03-19T16:48:36.126Z,101789.14
2019-03-19T16:51:03.207Z,101785.61
2019-03-19T16:53:30.271Z,101794.34
2019-03-19T16:55:57.373Z,101789.92
2019-03-19T16:58:24.449Z,101795.17
2019-03-19T17:00:51.532Z,101794.70
2019-03-19T17:03:18.616Z,101795.09
2019-03-19T17:05:45.677Z,101799.00
2019-03-19T17:08:12.789Z,101800.70
2019-03-19T17:10:39.854Z,101803.32
2019-03-19T17:13:06.950Z,101805.46
2019-03-19T17:15:34.008Z,101805.44
2019-03-19T17:18:01.067Z,101803.61
2019-03-19T17:20:28.124Z,101811.44
2019-03-19T17:22:55.185Z,101815.33
2019-03-19T17:25:22.291Z,101811.30
2019-03-19T17:27:49.435Z,101825.23
2019-03-19T17:30:21.346Z,101822.12
2019-03-19T17:32:48.488Z,101823.80
2019-03-19T17:35:15.542Z,101824.18
2019-03-19T17:37:42.613Z,101825.86
2019-03-19T17:40:09.791Z,101830.16
2019-03-19T17:42:36.893Z,101834.50
2019-03-19T17:45:04.771Z,101829.63
2019-03-19T17:47:31.864Z,101830.89
2019-03-19T17:49:58.944Z,101837.37
2019-03-19T17:52:26.008Z,101835.55
2019-03-19T17:54:53.070Z,101839.44
2019-03-19T17:57:21.218Z,101839.39
2019-03-19T17:59:48.291Z,101845.91
2019-03-19T18:02:23.914Z,101847.17
2019-03-19T18:04:47.339Z,101852.34
2019-03-19T18:07:14.492Z,101849.67
2019-03-19T18:09:41.671Z,101851.33
2019-03-19T18:12:08.749Z,101858.27
2019-03-19T18:14:35.806Z,101864.30
2019-03-19T18:17:02.927Z,101868.19
2019-03-19T18:19:29.995Z,101864.20
2019-03-19T18:21:57.107Z,101862.84
2019-03-19T18:24:24.209Z,101863.66
2019-03-19T18:26:51.296Z,101871.47
2019-03-19T18:29:18.369Z,101871.88
2019-03-19T18:31:45.429Z,101876.19
2019-03-19T18:34:12.618Z,101879.62
2019-03-19T18:36:39.744Z,101884.77
2019-03-19T18:39:07.399Z,101881.22
2019-03-19T18:41:34.460Z,101883.78
2019-03-19T18:44:01.569Z,101890.77
2019-03-19T18:46:28.707Z,101892.02
2019-03-19T18:48:55.798Z,101887.11
2019-03-19T18:51:22.879Z,101895.34
2019-03-19T18:53:50.019Z,101900.95
2019-03-19T18:56:17.093Z,101905.64
2019-03-19T18:58:44.209Z,101901.66
2019-03-19T19:01:11.290Z,101910.32
2019-03-19T19:03:40.347Z,101896.26
2019-03-19T19:06:07.640Z,101892.28
2019-03-19T19:08:35.119Z,101894.87
2019-03-19T19:11:03.688Z,101898.31
2019-03-19T19:13:30.940Z,101893.03
2019-03-19T19:15:58.169Z,101895.59
2019-03-19T19:18:25.181Z,101893.33
2019-03-19T19:20:52.327Z,101898.06
2019-03-19T19:23:19.468Z,101906.70
2019-03-19T19:25:46.552Z,101902.31
2019-03-19T19:28:14.052Z,101908.39
2019-03-19T19:30:41.278Z,101900.42
2019-03-19T19:33:08.387Z,101899.91
2019-03-19T19:35:35.508Z,101901.11
2019-03-19T19:38:03.634Z,101900.63
2019-03-19T19:40:30.890Z,101897.05
2019-03-19T19:42:58.048Z,101908.31
2019-03-19T19:45:25.206Z,101907.30
2019-03-19T19:47:52.305Z,101901.13
2019-03-19T19:50:19.457Z,101908.46
2019-03-19T19:52:46.664Z,101906.21
2019-03-19T19:55:14.177Z,101906.15
2019-03-19T19:57:41.305Z,101908.70
2019-03-19T20:00:11.222Z,101912.12
2019-03-19T20:02:38.343Z,101916.97
2019-03-19T20:05:05.544Z,101907.77
2019-03-19T20:07:32.849Z,101910.74
2019-03-19T20:09:59.969Z,101904.55
2019-03-19T20:12:27.040Z,101907.53
2019-03-19T20:14:54.151Z,101910.90
2019-03-19T20:17:21.236Z,101912.62
2019-03-19T20:19:48.367Z,101914.75
2019-03-19T20:22:15.603Z,101908.63
2019-03-19T20:24:42.774Z,101911.62
2019-03-19T20:27:09.856Z,101918.94
2019-03-19T20:29:37.211Z,101925.37
2019-03-19T20:32:04.419Z,101920.03
2019-03-19T20:34:31.830Z,101916.03
2019-03-19T20:36:58.894Z,101918.61
2019-03-19T20:39:26.008Z,101918.98
2019-03-19T20:41:53.096Z,101919.79
2019-03-19T20:44:20.200Z,101917.11
2019-03-19T20:46:47.309Z,101913.55
2019-03-19T20:49:14.509Z,101914.38
2019-03-19T20:51:41.791Z,101920.34
2019-03-19T20:54:08.869Z,101915.11
2019-03-19T20:56:36.445Z,101916.36
2019-03-19T20:59:03.503Z,101910.66
2019-03-19T21:01:30.600Z,101911.92
2019-03-19T21:04:05.498Z,101911.45
2019-03-19T21:06:32.799Z,101909.20
2019-03-19T21:08:59.809Z,101914.80
2019-03-19T21:11:26.918Z,101911.72
2019-03-19T21:13:54.003Z,101916.52
2019-03-19T21:16:21.095Z,101922.16
2019-03-19T21:18:48.182Z,101911.64
2019-03-19T21:21:15.261Z,101919.05
2019-03-19T21:23:42.343Z,101919.91
2019-03-19T21:26:09.418Z,101924.19
2019-03-19T21:28:36.500Z,101925.94
2019-03-19T21:31:03.592Z,101919.84
2019-03-19T21:33:30.672Z,101921.07
2019-03-19T21:35:57.755Z,101913.22
2019-03-19T21:38:24.817Z,101907.06
2019-03-19T21:40:51.894Z,101902.25
2019-03-19T21:43:18.981Z,101906.17
2019-03-19T21:45:46.026Z,101903.93
2019-03-19T21:48:13.121Z,101904.30
2019-03-19T21:50:40.212Z,101903.42
2019-03-19T21:53:07.272Z,101905.08
2019-03-19T21:55:34.368Z,101905.00
2019-03-19T21:58:01.547Z,101913.66
2019-03-19T22:00:28.618Z,101914.91
2019-03-19T22:02:55.719Z,101914.39
2019-03-19T22:05:22.855Z,101911.25
2019-03-19T22:07:49.925Z,101912.96
2019-03-19T22:10:16.988Z,101915.97
2019-03-19T22:12:44.064Z,101918.58
2019-03-19T22:15:13.612Z,101918.58
2019-03-19T22:17:40.775Z,101917.70
2019-03-19T22:20:08.066Z,101917.67
2019-03-19T22:22:35.148Z,101914.58
2019-03-19T22:25:02.259Z,101914.53
2019-03-19T22:27:29.327Z,101916.20
2019-03-19T22:29:56.468Z,101919.17
2019-03-19T22:32:23.535Z,101924.31
2019-03-19T22:34:50.605Z,101917.25
2019-03-19T22:37:17.678Z,101922.34
2019-03-19T22:39:44.816Z,101920.46
2019-03-19T22:42:11.884Z,101919.55
2019-03-19T22:44:38.975Z,101922.50
2019-03-19T22:47:06.047Z,101928.52
2019-03-19T22:49:34.607Z,101920.61
2019-03-19T22:52:04.084Z,101922.67
2019-03-19T22:54:31.147Z,101928.25
2019-03-19T22:56:58.216Z,101926.95
2019-03-19T22:59:25.289Z,101923.98
2019-03-19T23:01:52.386Z,101924.87
2019-03-19T23:04:27.101Z,101915.81
2019-03-19T23:06:48.397Z,101912.81
2019-03-19T23:09:15.463Z,101901.59
2019-03-19T23:11:42.567Z,101903.77
2019-03-19T23:14:09.617Z,101900.34
2019-03-19T23:16:36.710Z,101898.61
2019-03-19T23:19:05.631Z,101898.61
2019-03-19T23:21:32.679Z,101899.13
2019-03-19T23:23:59.747Z,101893.85
2019-03-19T23:26:26.847Z,101895.58
2019-03-19T23:28:53.906Z,101892.47
2019-03-19T23:31:20.978Z,101893.69
2019-03-19T23:33:48.044Z,101894.96
2019-03-19T23:36:15.127Z,101890.52
2019-03-19T23:38:42.195Z,101892.63
2019-03-19T23:41:09.248Z,101891.76
2019-03-19T23:43:36.308Z,101893.06
2019-03-19T23:46:03.376Z,101888.19
2019-03-19T23:48:30.447Z,101885.55
2019-03-19T23:50:57.508Z,101885.06
2019-03-19T23:53:24.592Z,101888.98
2019-03-19T23:55:51.647Z,101883.77
2019-03-19T23:58:18.726Z,101888.98
